• Join FlightAware (Why Join?)
  • Login
  • US Flag 
06:14AM EST


 

Airport Tracker/Info


-or-


 

Live Flight TrackerFlight Track Log ✈ FFT919 ✈ 15-Mar-2014 ✈ KTTN - KMCO

Flight Track Log - Related Links

Times and Time Zones

All times are in EDT time to prevent confusion due to time zone crossing. See the FFT919 flight status page for this flight to view local times or setup timezone preferences in your user account.

Time Position Orientation Groundspeed Altitude Reporting Facility
EDT Latitude Longitude Course Direction KTS MPH feet Rate Location/Type
10:36AM 40.2667 -74.8333 217° Southwest 123 142 1,100  Level Philadelphia TRACON
10:37AM 40.2333 -74.8667 217° Southwest 195 224 2,500 2,400 Climbing Philadelphia TRACON
10:38AM 40.2000 -74.9333 237° Southwest 238 274 5,500 2,160 Climbing Philadelphia TRACON
10:39AM 40.1667 -75.0000 237° Southwest 238 274 6,900 720 Climbing Philadelphia TRACON
10:40AM 40.1333 -75.0833 242° Southwest 239 275 7,000 1,440 Climbing Philadelphia TRACON
10:41AM 40.1167 -75.1500 252° West 218 251 9,800 1,500 Climbing Philadelphia TRACON
10:42AM 40.0833 -75.2333 242° Southwest 233 268 10,000 60 Climbing Philadelphia TRACON
10:42AM 40.0500 -75.3000 237° Southwest 235 270 10,000  Level Philadelphia TRACON
10:43AM 40.0167 -75.3667 237° Southwest 234 269 10,000  Level Philadelphia TRACON
10:44AM 39.9881 -75.4336 241° Southwest 245 282 10,000  Level New York Center
10:45AM 39.9622 -75.5022 244° Southwest 240 276 10,000  Level New York Center
10:46AM 39.9278 -75.5839 241° Southwest 235 270 10,000 900 Level New York Center
10:47AM 39.9000 -75.6522 242° Southwest 240 276 11,800 1,020 Climbing New York Center
10:48AM 39.8631 -75.7364 240° Southwest 240 276 12,100 1,380 Climbing New York Center
10:49AM 39.8308 -75.8097 240° Southwest 240 276 14,700 2,520 Climbing New York Center
10:50AM 39.7836 -75.8875 232° Southwest 252 290 17,300 1,860 Climbing New York Center
10:51AM 39.7631 -75.9750 253° West 273 314 18,500 1,260 Climbing New York Center
10:52AM 39.7411 -76.0950 257° West 307 353 19,900 1,860 Climbing New York Center
10:53AM 39.7103 -76.2194 252° West 343 395 22,200 1,980 Climbing New York Center
10:54AM 39.6464 -76.3358 235° Southwest 361 415 24,000 1,800 Climbing New York Center
10:55AM 39.5892 -76.4444 236° Southwest 361 415 25,800 1,740 Climbing New York Center
10:57AM 39.5169 -76.5689 233° Southwest 381 438 27,800 1,320 Climbing Washington Center
10:58AM 39.4544 -76.6822 234° Southwest 383 441 28,800 1,320 Climbing Washington Center
10:59AM 39.3914 -76.7967 235° Southwest 389 448 30,600 1,380 Climbing Washington Center
11:00AM 39.3269 -76.9086 233° Southwest 388 447 31,700 1,080 Climbing Washington Center
11:01AM 39.2556 -77.0161 229° Southwest 394 453 32,900 1,200 Climbing Washington Center
11:02AM 39.1472 -77.1200 217° Southwest 402 463 34,200 1,020 Climbing Washington Center
11:03AM 39.0544 -77.2097 217° Southwest 413 475 35,100 780 Climbing Washington Center
11:04AM 38.9600 -77.3008 217° Southwest 419 482 35,900 1,140 Climbing Washington Center
11:05AM 38.8667 -77.3922 217° Southwest 420 483 37,500 960 Climbing Washington Center
11:06AM 38.7758 -77.4789 217° Southwest 406 467 38,000 240 Climbing Washington Center
11:07AM 38.6686 -77.5800 216° Southwest 420 483 38,000  Level Washington Center
11:08AM 38.5772 -77.6681 217° Southwest 415 478 38,000  Level Washington Center
11:09AM 38.4967 -77.7431 216° Southwest 404 465 38,000  Level Washington Center
11:10AM 38.3861 -77.8481 217° Southwest 406 467 38,000  Level Washington Center
11:11AM 38.2942 -77.9356 217° Southwest 408 470 38,000  Level Washington Center
11:12AM 38.2011 -78.0233 217° Southwest 413 475 38,000  Level Washington Center
11:13AM 38.1092 -78.1097 216° Southwest 413 475 38,000  Level Washington Center
11:14AM 38.0078 -78.2047 216° Southwest 412 474 38,000  Level Washington Center
11:15AM 37.9158 -78.2894 216° Southwest 416 479 38,000  Level Washington Center
11:16AM 37.8261 -78.3731 216° Southwest 413 475 38,000  Level Washington Center
11:17AM 37.7178 -78.4744 217° Southwest 413 475 38,000  Level Washington Center
11:18AM 37.6269 -78.5581 216° Southwest 413 475 38,000  Level Washington Center
11:19AM 37.5353 -78.6431 216° Southwest 414 476 38,000  Level Washington Center
11:20AM 37.4436 -78.7256 216° Southwest 414 476 38,000  Level Washington Center
11:21AM 37.3358 -78.8244 216° Southwest 410 472 38,000  Level Washington Center
11:22AM 37.2447 -78.9069 216° Southwest 411 473 38,000  Level Washington Center
11:23AM 37.1542 -78.9897 216° Southwest 411 473 38,000  Level Washington Center
11:24AM 37.0461 -79.0861 215° Southwest 408 470 38,000  Level Washington Center
11:26AM 36.9569 -79.1686 216° Southwest 407 468 38,000  Level Washington Center
11:27AM 36.8669 -79.2481 215° Southwest 407 468 38,000  Level Washington Center
11:28AM 36.7775 -79.3297 216° Southwest 408 470 38,000  Level Washington Center
11:29AM 36.6686 -79.4269 216° Southwest 408 470 38,000  Level Washington Center
11:30AM 36.5750 -79.5108 216° Southwest 421 484 38,100  Climbing Washington Center
11:31AM 36.4822 -79.5919 215° Southwest 421 484 38,100 -60 Level Washington Center
11:32AM 36.3914 -79.6733 216° Southwest 418 481 38,000 -60 Descending Washington Center
11:33AM 36.2789 -79.7697 215° Southwest 412 474 38,000  Level Washington Center
11:34AM 36.1956 -79.8447 216° Southwest 417 480 38,000  Level Washington Center
11:35AM 36.0736 -79.9464 214° Southwest 417 480 38,000  Level Atlanta Center
11:36AM 35.9714 -80.0106 207° Southwest 417 480 38,000  Level Atlanta Center
11:37AM 35.8625 -80.0672 203° Southwest 417 480 38,000  Level Atlanta Center
11:38AM 35.7619 -80.1181 202° Southwest 431 496 38,000  Level Atlanta Center
11:39AM 35.6408 -80.1775 202° Southwest 431 496 38,000  Level Atlanta Center
11:40AM 35.5253 -80.2189 196° South 431 496 38,000  Level Atlanta Center
11:41AM 35.4075 -80.2522 193° South 431 496 38,000  Level Atlanta Center
11:42AM 35.3019 -80.2850 194° South 436 502 38,000  Level Atlanta Center
11:43AM 35.1903 -80.3181 194° South 431 496 38,000  Level Atlanta Center
11:44AM 35.0744 -80.3539 194° South 431 496 38,000  Level Atlanta Center
11:48AM 34.6292 -80.4881 194° South 442 509 38,000  Level Jacksonville Center
11:49AM 34.5131 -80.5189 192° South 453 521 38,000  Level Jacksonville Center
11:50AM 34.3989 -80.5547 195° South 442 509 38,000 -60 Level Jacksonville Center
11:51AM 34.2850 -80.5906 195° South 430 495 37,900  Descending Jacksonville Center
11:52AM 34.1686 -80.6236 193° South 430 495 38,000  Climbing Jacksonville Center
11:53AM 34.0544 -80.6567 193° South 430 495 37,900  Descending Jacksonville Center
11:54AM 33.9403 -80.6897 194° South 430 495 38,000  Climbing Jacksonville Center
11:55AM 33.8242 -80.7250 194° South 430 495 38,000  Level Jacksonville Center
11:56AM 33.7097 -80.7581 194° South 430 495 38,000  Level Jacksonville Center
11:57AM 33.5956 -80.7906 193° South 430 495 38,000  Level Jacksonville Center
11:58AM 33.4814 -80.8231 193° South 430 495 38,000  Level Jacksonville Center
11:59AM 33.3692 -80.8581 195° South 425 489 38,000  Level Jacksonville Center
12:00PM 33.2675 -80.8828 191° South 425 489 38,000 -60 Level Jacksonville Center
12:01PM 33.1572 -80.9150 194° South 420 483 37,900 -60 Descending Jacksonville Center
12:02PM 33.0472 -80.9472 194° South 415 478 37,900  Level Jacksonville Center
12:03PM 32.9306 -80.9669 188° South 415 478 38,000  Climbing Jacksonville Center
12:04PM 32.8117 -80.9769 184° South 425 489 38,000  Level Jacksonville Center
12:05PM 32.6928 -80.9844 183° South 425 489 38,000  Level Jacksonville Center
12:06PM 32.5761 -80.9942 184° South 425 489 38,000 -60 Level Jacksonville Center
12:07PM 32.4553 -81.0067 185° South 425 489 37,900  Descending Jacksonville Center
12:08PM 32.3281 -81.0192 185° South 420 483 38,000  Climbing Jacksonville Center
12:09PM 32.2092 -81.0264 183° South 432 497 38,000  Level Jacksonville Center
12:10PM 32.0986 -81.0311 182° South 442 509 38,000  Level Jacksonville Center
12:11PM 31.9631 -81.0461 185° South 442 509 38,000  Level Jacksonville Center
12:12PM 31.8422 -81.0558 184° South 442 509 38,000  Level Jacksonville Center
12:13PM 31.7294 -81.0656 184° South 447 514 38,000  Level Jacksonville Center
12:14PM 31.5919 -81.0781 184° South 447 514 38,000  Level Jacksonville Center
12:15PM 31.4708 -81.0853 183° South 447 514 38,100  Climbing Jacksonville Center
12:16PM 31.3583 -81.0947 184° South 447 514 38,000 -60 Descending Jacksonville Center
12:17PM 31.2228 -81.1069 184° South 442 509 38,000  Level Jacksonville Center
12:18PM 31.0997 -81.1192 185° South 437 503 38,000 -60 Level Jacksonville Center
12:19PM 30.9789 -81.1286 184° South 437 503 37,900 -60 Descending Jacksonville Center
12:20PM 30.8558 -81.1358 183° South 443 510 37,900 -600 Level Jacksonville Center
12:21PM 30.7369 -81.1453 184° South 443 510 36,800 -1,860 Descending Jacksonville Center
12:22PM 30.6139 -81.1547 184° South 443 510 34,200 -1,440 Descending Jacksonville Center
12:23PM 30.4800 -81.1500 178° South 456 525 34,000 -120 Descending Jacksonville Center
12:24PM 30.3506 -81.1475 179° South 468 539 34,000  Level Jacksonville Center
12:25PM 30.2189 -81.1403 177° South 473 544 34,000  Level Jacksonville Center
12:26PM 30.0875 -81.1378 179° South 473 544 34,000 -780 Level Jacksonville Center
12:27PM 29.9581 -81.1331 178° South 473 544 32,500 1,980 Descending Jacksonville Center
12:28PM 29.8200 -81.1306 179° South 479 551 38,000 -5,400 Climbing Jacksonville Center
12:29PM 29.6864 -81.1258 178° South 484 557 21,700 -9,420 Descending Jacksonville Center
12:30PM 29.5528 -81.1236 179° South 489 563 19,200 -1,980 Descending Jacksonville Center
12:31PM 29.4358 -81.1208 179° South 460 529 17,800 -1,500 Descending Jacksonville Center
12:32PM 29.3231 -81.1111 176° South 431 496 16,200 -1,620 Descending Jacksonville Center
12:33PM 29.2081 -81.1036 177° South 419 482 14,600 -1,500 Descending Jacksonville Center
12:34PM 29.1058 -81.0983 177° South 395 455 13,200 -1,200 Descending Jacksonville Center
12:35PM 29.0139 -81.0906 176° South 363 418 12,200 -1,020 Descending Jacksonville Center
12:36PM 28.9300 -81.0753 171° South 330 380 11,200 -900 Descending Jacksonville Center
12:36PM 28.8667 -81.0667 173° South 299 344 10,700 -900 Descending Orlando TRACON
12:37PM 28.7833 -81.0667 180° South 286 329 9,600 -1,200 Descending Orlando TRACON
12:38PM 28.7333 -81.1167 221° Southwest 242 278 8,400 -1,440 Descending Orlando TRACON
12:39PM 28.7167 -81.2000 257° West 225 259 6,800 -1,800 Descending Orlando TRACON
12:40PM 28.7000 -81.2667 254° West 232 267 4,900 -1,740 Descending Orlando TRACON
12:41PM 28.6333 -81.2833 192° South 217 250 3,400 -1,020 Descending Orlando TRACON
12:42PM 28.5833 -81.2833 180° South 222 255 2,900 -900 Descending Orlando TRACON
12:43PM 28.5333 -81.2833 180° South 178 205 1,700 -1,080 Descending Orlando TRACON
12:44PM 28.4833 -81.2833 180° South 152 175 800 -900 Descending Orlando TRACON
12:46PM 28.4294 -81.3090 185° South  Level Estimated
12:53PM 28.4294 -81.3090 185° South  Level Estimated
12:54PM 28.4294 -81.3090 185° South  Level Estimated
12:55PM 28.4294 -81.3090 185° South  Level Estimated
12:56PM 28.4294 -81.3090 185° South  Level Estimated